Time;durP1;ratioP1;P1;durP2;ratioP2;P2;SDS_P1;SDS_P2;PMS_P1;PMS_P2;Temp;Humidity;BMP_temperature;BMP_pressure;BME280_temperature;BME280_humidity;BME280_pressure;Samples;Min_cycle;Max_cycle;Signal;HPM_P1;HPM_P2
2023/04/02 00:02:31;;;;;;;3.80;0.77;;;8.20;37.30;;;;;;5034537;28;20570;-68
2023/04/02 00:05:49;;;;;;;3.90;1.10;;;8.20;37.30;;;;;;5038987;28;20678;-70
2023/04/02 00:08:25;;;;;;;4.30;1.10;;;8.20;37.30;;;;;;5042246;28;20986;-69
2023/04/02 00:10:53;;;;;;;3.70;0.83;;;8.20;37.30;;;;;;5038477;28;20488;-70
2023/04/02 00:13:25;;;;;;;5.40;1.20;;;8.10;37.30;;;;;;5038702;28;20486;-69
2023/04/02 00:15:56;;;;;;;3.93;0.90;;;8.10;37.30;;;;;;5037305;28;21072;-69
2023/04/02 00:18:24;;;;;;;5.17;1.00;;;8.10;37.30;;;;;;5042277;28;20486;-69
2023/04/02 00:20:55;;;;;;;4.27;1.00;;;8.10;37.30;;;;;;5044677;28;20560;-69
2023/04/02 00:23:24;;;;;;;5.30;1.00;;;8.10;37.00;;;;;;5044040;28;20962;-68
2023/04/02 00:25:51;;;;;;;4.13;0.87;;;8.10;37.30;;;;;;5043213;28;20454;-69
2023/04/02 00:28:20;;;;;;;3.93;0.83;;;8.10;37.20;;;;;;5043561;28;20469;-69
2023/04/02 00:30:49;;;;;;;4.30;0.97;;;8.10;37.30;;;;;;5041536;28;20492;-70
2023/04/02 00:33:19;;;;;;;4.50;1.10;;;8.10;37.30;;;;;;5044305;28;20505;-69
2023/04/02 00:35:47;;;;;;;4.73;1.00;;;8.10;37.30;;;;;;5055266;28;20984;-70
2023/04/02 00:38:21;;;;;;;4.33;0.90;;;8.10;37.40;;;;;;5061542;28;20465;-69
2023/04/02 00:40:51;;;;;;;5.03;1.23;;;8.10;37.30;;;;;;5050638;28;21023;-69
2023/04/02 00:43:19;;;;;;;4.23;1.13;;;8.00;37.10;;;;;;5049643;28;20527;-69
2023/04/02 00:45:51;;;;;;;4.63;1.20;;;8.00;37.10;;;;;;5051341;28;20458;-69
2023/04/02 00:48:39;;;;;;;4.27;1.00;;;8.00;37.30;;;;;;5048792;28;20541;-69
2023/04/02 00:51:15;;;;;;;4.70;1.33;;;7.90;37.50;;;;;;5049005;28;20490;-69
2023/04/02 00:53:45;;;;;;;4.87;0.93;;;7.90;37.50;;;;;;5046993;28;20481;-68
2023/04/02 00:56:20;;;;;;;3.67;0.90;;;7.90;37.50;;;;;;5048654;28;20501;-69
2023/04/02 00:58:53;;;;;;;3.63;0.80;;;7.90;37.50;;;;;;5044764;28;20499;-69
2023/04/02 01:01:23;;;;;;;5.03;1.30;;;7.90;37.40;;;;;;5045342;28;20489;-70
2023/04/02 01:03:56;;;;;;;3.40;0.77;;;7.80;37.60;;;;;;5046740;28;20465;-69
2023/04/02 01:06:29;;;;;;;4.60;1.00;;;7.80;37.70;;;;;;5046723;28;20446;-69
2023/04/02 01:09:17;;;;;;;4.57;0.93;;;7.80;37.80;;;;;;5043966;28;20455;-69
2023/04/02 01:11:57;;;;;;;4.70;0.80;;;7.80;38.00;;;;;;5042790;28;20683;-68
2023/04/02 01:14:43;;;;;;;5.50;0.90;;;7.80;38.00;;;;;;5043185;28;20493;-68
2023/04/02 01:17:25;;;;;;;9.57;1.37;;;7.70;38.10;;;;;;5043978;28;20470;-69
2023/04/02 01:20:11;;;;;;;5.60;1.33;;;7.60;38.20;;;;;;5047093;28;20531;-70
2023/04/02 01:22:47;;;;;;;4.67;1.50;;;7.60;38.40;;;;;;5045426;28;20560;-69
2023/04/02 01:25:17;;;;;;;3.60;0.90;;;7.60;38.50;;;;;;5048009;28;20460;-68
2023/04/02 01:27:51;;;;;;;6.17;1.20;;;7.60;38.60;;;;;;5044802;28;20871;-69
2023/04/02 01:30:20;;;;;;;4.17;1.17;;;7.50;38.70;;;;;;5048872;28;20553;-68
2023/04/02 01:32:49;;;;;;;4.13;1.20;;;7.50;38.80;;;;;;5047078;28;20474;-68
2023/04/02 01:35:16;;;;;;;4.73;1.40;;;7.40;38.70;;;;;;5050870;28;20481;-69
2023/04/02 01:37:48;;;;;;;5.20;1.40;;;7.40;38.90;;;;;;5046799;28;20457;-68
2023/04/02 01:40:30;;;;;;;4.80;1.40;;;7.40;39.00;;;;;;5048484;28;20458;-70
2023/04/02 01:43:04;;;;;;;5.00;1.13;;;7.30;39.20;;;;;;5051220;28;20468;-68
2023/04/02 01:45:33;;;;;;;5.87;1.40;;;7.30;39.60;;;;;;5053440;28;20891;-69
2023/04/02 01:48:02;;;;;;;4.50;1.17;;;7.30;39.70;;;;;;5049822;28;20476;-69
2023/04/02 01:50:31;;;;;;;4.53;1.70;;;7.30;40.00;;;;;;5041721;28;20458;-69
2023/04/02 01:53:00;;;;;;;5.70;1.40;;;7.20;40.00;;;;;;5041652;28;20461;-69
2023/04/02 01:55:33;;;;;;;7.13;1.43;;;7.20;40.10;;;;;;5042927;28;21025;-70
2023/04/02 01:58:01;;;;;;;6.97;1.20;;;7.20;40.00;;;;;;5045170;28;20458;-69
2023/04/02 02:00:30;;;;;;;5.77;1.93;;;7.20;39.80;;;;;;5047634;28;20462;-69
2023/04/02 02:03:00;;;;;;;5.77;1.70;;;7.20;40.00;;;;;;5047050;28;20493;-69
2023/04/02 02:05:28;;;;;;;5.30;1.17;;;7.20;40.10;;;;;;5040667;28;20462;-69
2023/04/02 02:07:56;;;;;;;5.60;1.33;;;7.20;40.10;;;;;;5046736;28;20473;-69
2023/04/02 02:10:26;;;;;;;3.90;1.03;;;7.10;40.40;;;;;;5045969;28;20454;-69
2023/04/02 02:12:53;;;;;;;4.10;1.20;;;7.10;40.50;;;;;;5048969;28;20477;-70
2023/04/02 02:15:22;;;;;;;4.73;0.87;;;7.10;40.50;;;;;;5039297;28;20501;-69
2023/04/02 02:17:50;;;;;;;4.73;1.27;;;7.10;40.50;;;;;;5050578;28;20469;-69
2023/04/02 02:20:18;;;;;;;4.53;1.00;;;7.10;40.60;;;;;;5048893;28;20462;-69
2023/04/02 02:22:47;;;;;;;4.83;1.43;;;7.00;40.60;;;;;;5048576;28;20454;-68
2023/04/02 02:25:16;;;;;;;3.87;1.00;;;7.00;40.50;;;;;;5046036;28;20528;-69
2023/04/02 02:27:48;;;;;;;5.60;1.50;;;7.00;40.60;;;;;;5045932;28;20458;-69
2023/04/02 02:30:19;;;;;;;4.60;0.90;;;6.90;40.70;;;;;;5043489;28;20460;-76
2023/04/02 02:32:53;;;;;;;3.97;1.00;;;6.90;40.70;;;;;;5047010;28;20962;-75
2023/04/02 02:35:25;;;;;;;5.93;1.30;;;6.90;41.00;;;;;;5048409;28;20480;-75
2023/04/02 02:37:57;;;;;;;3.90;1.00;;;6.90;40.90;;;;;;5043670;28;20466;-75
2023/04/02 02:40:29;;;;;;;5.13;1.50;;;6.90;40.90;;;;;;5044375;28;20466;-69
2023/04/02 02:43:01;;;;;;;6.00;1.40;;;6.80;41.00;;;;;;5047489;28;20909;-70
2023/04/02 02:45:32;;;;;;;4.77;1.47;;;6.90;41.80;;;;;;5046923;28;20465;-69
2023/04/02 02:48:01;;;;;;;5.10;1.33;;;6.90;41.20;;;;;;5044846;28;20494;-69
2023/04/02 02:50:31;;;;;;;4.30;0.90;;;6.80;41.30;;;;;;5046576;28;20462;-69
2023/04/02 02:52:59;;;;;;;4.00;1.07;;;6.80;41.40;;;;;;5045183;28;20465;-69
2023/04/02 02:55:30;;;;;;;5.27;1.20;;;6.80;41.40;;;;;;5045359;28;20473;-69
2023/04/02 02:58:03;;;;;;;5.67;1.20;;;6.90;41.40;;;;;;5045330;28;20545;-69
2023/04/02 03:00:32;;;;;;;4.53;1.20;;;6.80;41.70;;;;;;5046272;28;20549;-70
2023/04/02 03:03:00;;;;;;;4.90;1.47;;;6.90;41.60;;;;;;5039384;28;20470;-69
2023/04/02 03:05:30;;;;;;;4.00;1.20;;;6.90;41.70;;;;;;5047706;28;20946;-69
2023/04/02 03:07:58;;;;;;;3.93;1.13;;;7.00;41.70;;;;;;5046567;28;20489;-69
2023/04/02 03:10:33;;;;;;;5.40;1.47;;;7.00;41.70;;;;;;5044115;28;20467;-69
2023/04/02 03:13:07;;;;;;;4.50;1.50;;;7.00;41.80;;;;;;5046696;28;20461;-70
2023/04/02 03:15:39;;;;;;;5.50;1.30;;;7.00;41.60;;;;;;5046739;28;20464;-69
2023/04/02 03:18:11;;;;;;;6.80;1.60;;;7.10;41.70;;;;;;5046785;28;21032;-70
2023/04/02 03:20:45;;;;;;;4.67;1.40;;;7.10;41.60;;;;;;5045207;28;20485;-69
2023/04/02 03:23:17;;;;;;;5.33;1.40;;;7.10;41.50;;;;;;5046363;28;20803;-69
2023/04/02 03:25:52;;;;;;;4.70;1.60;;;7.10;41.50;;;;;;5040568;28;20967;-68
2023/04/02 03:28:22;;;;;;;5.33;1.43;;;7.10;41.40;;;;;;5044470;28;20501;-69
2023/04/02 03:30:54;;;;;;;7.40;1.50;;;7.10;41.30;;;;;;5044555;28;21056;-69
2023/04/02 03:33:26;;;;;;;4.70;1.40;;;7.10;41.10;;;;;;5047281;28;20458;-68
2023/04/02 03:35:59;;;;;;;4.80;1.57;;;7.00;40.90;;;;;;5062546;28;20472;-69
2023/04/02 03:38:30;;;;;;;4.00;0.93;;;7.00;40.90;;;;;;5060021;22;20509;-68
2023/04/02 03:41:04;;;;;;;5.03;1.00;;;7.00;40.70;;;;;;5037545;28;20482;-68
2023/04/02 03:43:34;;;;;;;4.30;1.00;;;6.90;40.60;;;;;;5038926;28;20545;-68
2023/04/02 03:46:11;;;;;;;3.63;1.00;;;6.90;40.70;;;;;;5038147;28;20454;-68
2023/04/02 03:48:43;;;;;;;5.00;1.40;;;6.80;40.70;;;;;;5041517;28;20458;-68
2023/04/02 03:51:18;;;;;;;6.63;1.20;;;6.80;40.70;;;;;;5039172;28;20485;-68
2023/04/02 03:53:46;;;;;;;5.03;1.20;;;6.70;41.00;;;;;;5042441;28;20527;-68
2023/04/02 03:56:25;;;;;;;4.20;1.10;;;6.70;41.10;;;;;;5041153;28;20490;-68
2023/04/02 03:58:59;;;;;;;4.13;0.93;;;6.70;41.10;;;;;;5034720;28;20462;-68
2023/04/02 04:01:31;;;;;;;4.83;1.30;;;6.60;41.10;;;;;;5037269;28;20481;-68
2023/04/02 04:04:06;;;;;;;4.20;1.20;;;6.60;41.30;;;;;;5040876;28;20465;-68
2023/04/02 04:06:36;;;;;;;5.10;0.97;;;6.60;41.30;;;;;;5036216;28;20461;-68
2023/04/02 04:09:09;;;;;;;5.07;1.33;;;6.50;41.50;;;;;;5038656;28;20499;-68
2023/04/02 04:11:39;;;;;;;4.50;1.30;;;6.50;41.40;;;;;;5042338;28;20485;-68
2023/04/02 04:14:10;;;;;;;3.90;1.00;;;6.50;41.30;;;;;;5040485;28;20459;-68
2023/04/02 04:16:46;;;;;;;4.10;1.00;;;6.50;41.40;;;;;;5042744;28;20938;-68
2023/04/02 04:19:20;;;;;;;4.30;1.40;;;6.40;41.60;;;;;;5038964;28;20970;-68
2023/04/02 04:21:48;;;;;;;5.07;1.07;;;6.40;41.70;;;;;;5040633;28;20495;-68
2023/04/02 04:24:20;;;;;;;5.23;1.40;;;6.40;41.50;;;;;;5036398;28;20458;-68
2023/04/02 04:26:53;;;;;;;4.97;1.23;;;6.40;41.90;;;;;;5039864;28;20490;-68
2023/04/02 04:29:36;;;;;;;4.83;1.30;;;6.40;41.70;;;;;;5034360;28;20961;-69
2023/04/02 04:32:16;;;;;;;4.27;1.20;;;6.40;42.10;;;;;;5036896;28;20479;-71
2023/04/02 04:34:50;;;;;;;5.43;1.30;;;6.30;42.10;;;;;;5039857;28;20989;-70
2023/04/02 04:37:24;;;;;;;5.10;1.30;;;6.40;42.10;;;;;;5035504;28;23853;-69
2023/04/02 04:39:55;;;;;;;3.80;1.10;;;6.30;42.10;;;;;;5032214;28;22873;-68
2023/04/02 04:42:26;;;;;;;6.33;1.67;;;6.30;42.30;;;;;;5040637;28;20485;-68
2023/04/02 04:44:57;;;;;;;4.87;1.53;;;6.30;42.30;;;;;;5039839;28;20481;-68
2023/04/02 04:47:29;;;;;;;5.87;1.47;;;6.30;42.20;;;;;;5037777;28;20459;-68
2023/04/02 04:50:00;;;;;;;5.67;1.70;;;6.30;42.40;;;;;;5033612;28;20465;-68
2023/04/02 04:52:33;;;;;;;4.90;1.60;;;6.20;42.20;;;;;;5033918;28;20483;-68
2023/04/02 04:55:00;;;;;;;6.53;2.10;;;6.30;42.50;;;;;;5035006;28;20481;-68
2023/04/02 04:57:32;;;;;;;7.73;2.00;;;6.30;42.40;;;;;;5044442;28;20549;-68
2023/04/02 05:00:07;;;;;;;4.83;1.67;;;6.30;42.40;;;;;;5040164;28;20463;-69
2023/04/02 05:02:40;;;;;;;5.13;1.70;;;6.30;42.50;;;;;;5045248;28;20485;-69
2023/04/02 05:05:18;;;;;;;5.90;1.80;;;6.30;42.50;;;;;;5041997;28;20463;-69
2023/04/02 05:07:51;;;;;;;5.33;1.50;;;6.30;42.60;;;;;;5043658;28;20553;-68
2023/04/02 05:10:25;;;;;;;5.40;1.73;;;6.30;42.60;;;;;;5045847;28;20484;-68
2023/04/02 05:12:56;;;;;;;6.03;1.60;;;6.30;42.60;;;;;;5047399;28;20460;-69
2023/04/02 05:15:27;;;;;;;5.43;1.63;;;6.40;42.70;;;;;;5042170;28;20474;-68
2023/04/02 05:18:00;;;;;;;4.50;1.50;;;6.40;42.70;;;;;;5038043;28;20470;-69
2023/04/02 05:20:32;;;;;;;4.63;1.50;;;6.50;42.70;;;;;;5038091;28;20454;-68
2023/04/02 05:23:05;;;;;;;5.03;1.80;;;6.60;42.70;;;;;;5036469;28;22810;-69
2023/04/02 05:25:33;;;;;;;4.20;1.40;;;6.60;42.60;;;;;;5044157;28;20458;-69
2023/04/02 05:28:06;;;;;;;6.93;2.13;;;6.60;42.50;;;;;;5044829;28;20465;-69
2023/04/02 05:30:48;;;;;;;4.90;1.50;;;6.70;42.60;;;;;;5039690;28;20466;-69
2023/04/02 05:33:23;;;;;;;4.70;1.43;;;6.80;42.50;;;;;;5041559;28;20462;-68
2023/04/02 05:35:56;;;;;;;4.50;1.80;;;6.80;42.30;;;;;;5043837;28;20519;-69
2023/04/02 05:38:28;;;;;;;5.23;1.40;;;6.90;42.40;;;;;;5044542;28;20466;-68
2023/04/02 05:41:01;;;;;;;4.60;1.70;;;6.90;42.10;;;;;;5042611;28;20481;-68
2023/04/02 05:43:31;;;;;;;4.17;1.40;;;7.00;42.00;;;;;;5042171;28;20457;-69
2023/04/02 05:46:03;;;;;;;4.47;1.40;;;7.10;41.90;;;;;;5041951;28;20463;-69
2023/04/02 05:48:33;;;;;;;5.23;1.50;;;7.20;41.40;;;;;;5047143;28;21440;-69
2023/04/02 05:51:03;;;;;;;4.90;1.53;;;7.30;40.90;;;;;;5043689;28;20497;-69
2023/04/02 05:53:35;;;;;;;5.60;1.53;;;7.30;40.80;;;;;;5039798;28;20477;-69
2023/04/02 05:56:06;;;;;;;5.17;1.90;;;7.40;40.60;;;;;;5039502;28;20557;-69
2023/04/02 05:58:38;;;;;;;6.40;1.47;;;7.50;40.50;;;;;;5043169;28;20469;-69
2023/04/02 06:01:16;;;;;;;5.63;2.07;;;7.50;40.30;;;;;;5042951;28;20563;-69
2023/04/02 06:03:50;;;;;;;5.13;1.80;;;7.60;40.00;;;;;;5035535;28;20465;-69
2023/04/02 06:06:26;;;;;;;5.13;1.40;;;7.60;40.10;;;;;;5039713;28;20459;-69
2023/04/02 06:09:00;;;;;;;4.47;1.50;;;7.70;39.90;;;;;;5044958;28;20633;-69
2023/04/02 06:11:32;;;;;;;4.50;1.60;;;7.70;39.80;;;;;;5038978;28;20481;-69
2023/04/02 06:13:59;;;;;;;4.50;1.17;;;7.80;39.60;;;;;;5040625;28;20469;-69
2023/04/02 06:16:33;;;;;;;4.73;1.33;;;7.90;39.40;;;;;;5038978;28;20862;-70
2023/04/02 06:19:00;;;;;;;4.87;1.43;;;7.90;39.30;;;;;;5039415;28;20467;-70
2023/04/02 06:21:27;;;;;;;5.70;1.60;;;8.00;39.20;;;;;;5045059;28;20489;-70
2023/04/02 06:23:58;;;;;;;4.37;1.50;;;8.10;39.10;;;;;;5040970;28;20558;-70
2023/04/02 06:26:30;;;;;;;7.33;1.40;;;8.20;38.80;;;;;;5044353;28;20458;-70
2023/04/02 06:29:03;;;;;;;4.10;1.50;;;8.30;38.20;;;;;;5038871;28;20501;-70
2023/04/02 06:31:36;;;;;;;5.03;1.50;;;8.40;38.10;;;;;;5043962;28;20478;-70
2023/04/02 06:34:05;;;;;;;5.00;1.60;;;8.40;37.60;;;;;;5043172;28;21084;-70
2023/04/02 06:36:33;;;;;;;4.93;1.70;;;8.50;37.40;;;;;;5042960;28;20492;-70
2023/04/02 06:39:07;;;;;;;5.97;1.63;;;8.60;36.90;;;;;;5041903;28;20474;-69
2023/04/02 06:41:34;;;;;;;4.87;1.43;;;8.70;36.90;;;;;;5034953;28;20489;-69
2023/04/02 06:44:05;;;;;;;4.60;1.83;;;8.70;36.90;;;;;;5040348;28;20466;-69
2023/04/02 06:46:37;;;;;;;5.03;1.90;;;8.70;36.70;;;;;;5042520;28;20458;-69
2023/04/02 06:49:14;;;;;;;5.83;1.90;;;8.80;36.70;;;;;;5040535;28;20469;-64
2023/04/02 06:51:43;;;;;;;5.40;1.57;;;8.80;36.40;;;;;;5038637;28;20485;-64
2023/04/02 06:54:16;;;;;;;4.60;1.63;;;8.80;36.20;;;;;;5036200;28;20494;-64
2023/04/02 06:56:46;;;;;;;4.77;1.77;;;8.80;36.10;;;;;;5044813;28;20485;-64
2023/04/02 06:59:13;;;;;;;5.70;2.40;;;8.80;35.90;;;;;;5037632;28;20477;-65
2023/04/02 07:01:44;;;;;;;5.53;1.80;;;8.90;36.00;;;;;;5039960;28;20489;-65
2023/04/02 07:04:11;;;;;;;6.10;1.80;;;8.90;36.10;;;;;;5041185;28;20473;-65
2023/04/02 07:06:38;;;;;;;4.73;1.90;;;8.90;36.00;;;;;;5036682;28;20450;-64
2023/04/02 07:09:06;;;;;;;5.47;1.77;;;9.00;35.90;;;;;;5037526;28;20897;-64
2023/04/02 07:11:34;;;;;;;6.50;2.80;;;9.10;35.70;;;;;;5042641;28;20521;-65
2023/04/02 07:14:01;;;;;;;4.93;1.73;;;9.10;35.50;;;;;;5037732;28;20466;-65
2023/04/02 07:16:30;;;;;;;5.63;1.90;;;9.30;35.40;;;;;;5042567;28;21025;-64
2023/04/02 07:18:57;;;;;;;5.23;1.80;;;9.40;35.40;;;;;;5039752;28;20470;-64
2023/04/02 07:21:24;;;;;;;6.00;2.00;;;9.60;34.80;;;;;;5042563;28;20512;-65
2023/04/02 07:23:51;;;;;;;6.03;2.03;;;9.70;34.40;;;;;;5035538;28;20462;-64
2023/04/02 07:26:21;;;;;;;6.00;2.03;;;9.90;33.80;;;;;;5038178;28;20454;-66
2023/04/02 07:28:49;;;;;;;5.20;2.23;;;10.10;33.20;;;;;;5040761;28;20465;-65
2023/04/02 07:31:18;;;;;;;5.13;2.17;;;10.20;32.60;;;;;;5037398;28;20581;-65
2023/04/02 07:33:45;;;;;;;6.00;2.27;;;10.40;32.00;;;;;;5031638;28;20474;-66
2023/04/02 07:36:16;;;;;;;5.27;2.27;;;10.50;31.70;;;;;;5026284;28;20926;-65
2023/04/02 07:38:43;;;;;;;5.37;2.27;;;10.60;31.10;;;;;;5032503;28;20474;-66
2023/04/02 07:41:11;;;;;;;7.40;2.33;;;10.70;30.90;;;;;;5034399;28;20514;-68
2023/04/02 07:43:38;;;;;;;6.27;2.40;;;10.70;30.50;;;;;;5038541;28;20467;-66
2023/04/02 07:46:07;;;;;;;4.90;2.10;;;10.60;30.10;;;;;;5035405;28;20541;-66
2023/04/02 07:48:34;;;;;;;4.80;2.63;;;10.60;29.80;;;;;;5039163;28;20466;-68
2023/04/02 07:51:02;;;;;;;5.33;2.53;;;10.50;30.10;;;;;;5044374;28;20539;-68
2023/04/02 07:53:31;;;;;;;7.73;3.17;;;10.50;30.30;;;;;;5035247;28;20458;-68
2023/04/02 07:55:59;;;;;;;5.73;2.60;;;10.40;30.50;;;;;;5039087;28;20481;-68
2023/04/02 07:58:26;;;;;;;6.10;2.53;;;10.40;30.60;;;;;;5035124;28;20540;-68
2023/04/02 08:00:53;;;;;;;5.83;2.63;;;10.40;30.60;;;;;;5033834;28;20481;-68
2023/04/02 08:03:21;;;;;;;8.67;2.77;;;10.40;30.70;;;;;;5039661;28;20470;-66
2023/04/02 08:05:53;;;;;;;6.77;3.33;;;10.50;30.80;;;;;;5032416;28;20462;-66
2023/04/02 08:08:20;;;;;;;7.80;3.63;;;10.50;30.60;;;;;;5037263;28;20470;-66
2023/04/02 08:10:47;;;;;;;6.17;3.20;;;10.50;30.40;;;;;;5039693;28;20856;-67
2023/04/02 08:13:14;;;;;;;5.13;2.93;;;10.50;30.60;;;;;;5034323;28;20826;-68
2023/04/02 08:15:40;;;;;;;5.83;3.30;;;10.60;30.60;;;;;;5035565;28;20477;-67
2023/04/02 08:18:07;;;;;;;5.60;3.17;;;10.70;30.80;;;;;;5043243;28;20480;-69
2023/04/02 08:20:35;;;;;;;6.33;3.57;;;10.80;30.70;;;;;;5041306;28;20466;-67
2023/04/02 08:23:03;;;;;;;5.63;3.60;;;10.90;30.40;;;;;;5036981;28;20832;-65
2023/04/02 08:25:29;;;;;;;6.63;3.40;;;11.00;30.20;;;;;;5040372;28;20490;-66
2023/04/02 08:27:56;;;;;;;6.17;3.80;;;11.00;29.70;;;;;;5038430;28;20462;-66
2023/04/02 08:30:23;;;;;;;6.50;3.73;;;11.10;29.60;;;;;;5032259;28;20466;-66
2023/04/02 08:32:50;;;;;;;5.83;3.70;;;11.20;29.40;;;;;;5038033;28;20462;-66
2023/04/02 08:35:17;;;;;;;7.27;4.20;;;11.30;29.40;;;;;;5038413;28;20470;-66
2023/04/02 08:37:45;;;;;;;6.30;3.57;;;11.40;29.40;;;;;;5039569;28;20486;-66
2023/04/02 08:40:22;;;;;;;7.37;3.53;;;11.60;29.00;;;;;;5047134;28;20473;-66
2023/04/02 08:43:01;;;;;;;7.73;3.63;;;11.80;28.40;;;;;;5045383;28;20453;-66
2023/04/02 08:45:41;;;;;;;6.67;3.70;;;12.10;27.90;;;;;;5039192;28;20965;-66
2023/04/02 08:48:11;;;;;;;5.73;3.50;;;12.50;26.80;;;;;;5034424;28;20461;-67
2023/04/02 08:50:40;;;;;;;7.10;3.40;;;12.90;25.90;;;;;;5037821;28;20485;-68
2023/04/02 08:53:15;;;;;;;6.20;3.73;;;13.40;24.20;;;;;;5034950;28;20470;-66
2023/04/02 08:58:28;;;;;;;5.20;2.80;;;14.50;21.70;;;;;;5410052;22;20600;-72
2023/04/02 09:00:57;;;;;;;5.20;2.67;;;15.00;20.00;;;;;;5065394;28;20514;-69
2023/04/02 09:03:29;;;;;;;5.37;2.40;;;15.40;18.40;;;;;;5064465;28;20979;-70
2023/04/02 09:05:59;;;;;;;6.40;3.00;;;15.70;17.70;;;;;;5065345;28;20581;-73
2023/04/02 09:08:29;;;;;;;4.57;2.33;;;16.10;16.50;;;;;;5058432;28;20465;-69
2023/04/02 09:11:02;;;;;;;5.83;2.70;;;16.40;15.60;;;;;;5055405;28;20466;-71
2023/04/02 09:13:31;;;;;;;5.10;2.43;;;16.50;14.80;;;;;;5058618;28;20465;-68
2023/04/02 09:16:03;;;;;;;4.97;2.00;;;16.60;14.70;;;;;;5057158;28;20490;-69
2023/04/02 09:18:32;;;;;;;4.97;2.03;;;16.70;14.10;;;;;;5056125;28;20489;-69
2023/04/02 09:21:03;;;;;;;4.53;2.00;;;16.50;13.80;;;;;;5056331;28;20454;-74
2023/04/02 09:23:32;;;;;;;5.10;2.70;;;16.40;14.20;;;;;;5055966;28;20499;-74
2023/04/02 09:25:58;;;;;;;4.37;2.00;;;16.30;14.30;;;;;;5055527;28;20489;-73
2023/04/02 09:28:26;;;;;;;5.77;2.17;;;16.20;14.40;;;;;;5058039;28;20464;-70
2023/04/02 09:31:04;;;;;;;5.20;2.50;;;16.10;15.10;;;;;;5050532;28;20496;-72
2023/04/02 09:33:49;;;;;;;6.33;2.13;;;16.00;15.30;;;;;;5042167;28;20461;-71
2023/04/02 09:36:31;;;;;;;4.40;1.73;;;16.00;15.40;;;;;;5055969;28;20496;-71
2023/04/02 09:39:05;;;;;;;4.93;2.13;;;15.90;15.30;;;;;;5059647;28;20454;-72
2023/04/02 09:41:32;;;;;;;4.30;1.70;;;15.80;15.40;;;;;;5052663;28;20524;-70
2023/04/02 09:44:19;;;;;;;5.28;1.63;;;15.80;15.00;;;;;;5059909;28;20475;-70
2023/04/02 09:46:58;;;;;;;5.37;1.40;;;15.80;15.10;;;;;;5058281;28;20566;-69
2023/04/02 09:49:28;;;;;;;5.50;1.90;;;15.90;15.20;;;;;;5048663;28;20541;-70
2023/04/02 09:52:17;;;;;;;3.90;1.40;;;16.00;14.90;;;;;;5058690;28;20469;-69
2023/04/02 09:54:45;;;;;;;4.97;1.73;;;16.40;14.40;;;;;;5081782;22;21246;-72
2023/04/02 09:57:22;;;;;;;4.10;1.27;;;16.70;13.40;;;;;;4995168;22;20490;-72
2023/04/02 10:00:11;;;;;;;4.00;1.40;;;17.20;12.10;;;;;;5002985;28;21844;-68
2023/04/02 10:02:40;;;;;;;4.10;1.70;;;17.60;11.60;;;;;;5012926;28;20467;-66
2023/04/02 10:05:17;;;;;;;4.53;1.90;;;17.70;10.40;;;;;;5019682;28;20475;-69
2023/04/02 10:07:47;;;;;;;4.33;1.70;;;17.70;10.30;;;;;;5016382;28;20492;-66
2023/04/02 10:10:20;;;;;;;4.23;1.60;;;17.50;10.50;;;;;;5014426;28;20549;-67
2023/04/02 10:12:52;;;;;;;4.13;1.30;;;17.30;11.10;;;;;;5020086;28;20517;-67
2023/04/02 10:15:26;;;;;;;4.90;1.57;;;17.20;12.20;;;;;;5023586;28;20558;-69
2023/04/02 10:18:01;;;;;;;4.00;1.30;;;17.10;11.90;;;;;;5015730;28;20487;-67
2023/04/02 10:20:31;;;;;;;5.83;1.67;;;17.10;12.10;;;;;;5021788;28;20462;-69
2023/04/02 10:22:58;;;;;;;3.83;1.30;;;17.10;11.60;;;;;;5018585;28;20470;-68
2023/04/02 10:25:30;;;;;;;4.43;1.50;;;17.10;12.10;;;;;;5077760;22;20871;-71
2023/04/02 10:28:11;;;;;;;4.07;1.40;;;17.20;12.20;;;;;;5042286;28;20482;-70
2023/04/02 10:30:52;;;;;;;3.80;1.10;;;17.30;11.90;;;;;;5031455;28;20482;-70
2023/04/02 10:33:26;;;;;;;3.70;1.17;;;17.40;11.60;;;;;;5040901;28;20469;-72
2023/04/02 10:36:05;;;;;;;3.93;1.27;;;17.50;11.60;;;;;;5037906;28;20462;-75
2023/04/02 10:38:42;;;;;;;4.53;1.70;;;17.50;11.20;;;;;;5038225;28;20551;-74
2023/04/02 10:41:22;;;;;;;3.93;1.30;;;17.50;11.30;;;;;;5050030;28;20461;-72
2023/04/02 10:44:22;;;;;;;5.63;1.30;;;17.70;10.90;;;;;;5052675;28;20489;-73
2023/04/02 10:47:04;;;;;;;3.93;1.10;;;17.70;9.90;;;;;;5056228;28;20972;-70
2023/04/02 10:49:40;;;;;;;3.90;1.20;;;17.60;9.70;;;;;;5046704;28;20823;-73
2023/04/02 10:52:12;;;;;;;3.90;1.10;;;17.50;9.40;;;;;;5053897;28;20554;-75
2023/04/02 10:54:46;;;;;;;4.33;1.10;;;17.50;9.70;;;;;;5055431;28;20514;-76
2023/04/02 10:57:31;;;;;;;3.70;1.10;;;17.50;9.90;;;;;;5053949;28;20581;-74
2023/04/02 11:00:08;;;;;;;3.80;1.20;;;17.40;9.50;;;;;;5051528;28;20969;-75
2023/04/02 11:02:42;;;;;;;4.53;0.80;;;17.40;10.60;;;;;;5048498;28;20476;-72
2023/04/02 11:05:18;;;;;;;3.30;0.60;;;17.40;9.90;;;;;;5042600;28;20468;-69
2023/04/02 11:07:55;;;;;;;3.43;0.60;;;17.40;9.60;;;;;;5050484;28;20485;-71
2023/04/02 11:10:22;;;;;;;3.23;0.63;;;17.60;9.20;;;;;;5045188;28;20503;-71
2023/04/02 11:12:56;;;;;;;3.30;0.70;;;17.90;7.80;;;;;;5056134;28;20458;-71
2023/04/02 11:15:23;;;;;;;3.67;0.80;;;17.90;7.30;;;;;;5053145;28;20523;-70
2023/04/02 11:17:50;;;;;;;3.43;0.90;;;17.80;8.50;;;;;;5052344;28;20478;-70
2023/04/02 11:20:56;;;;;;;3.60;1.00;;;17.70;8.90;;;;;;5050598;28;20882;-68
2023/04/02 11:23:26;;;;;;;6.13;1.43;;;17.50;8.70;;;;;;5055216;28;20466;-70
2023/04/02 11:26:13;;;;;;;3.90;1.20;;;17.20;9.90;;;;;;5054247;28;20481;-69
2023/04/02 11:28:41;;;;;;;4.27;1.40;;;16.90;11.10;;;;;;5048065;28;21013;-68
2023/04/02 11:31:08;;;;;;;4.03;0.97;;;16.50;12.00;;;;;;5054898;28;20478;-69
2023/04/02 11:33:40;;;;;;;4.03;0.80;;;16.30;12.60;;;;;;5050570;28;20514;-68
2023/04/02 11:36:41;;;;;;;4.00;0.90;;;15.90;13.40;;;;;;5041108;28;20466;-69
2023/04/02 11:39:10;;;;;;;6.00;1.30;;;15.70;13.50;;;;;;5033028;28;20555;-69
2023/04/02 11:42:01;;;;;;;4.37;1.17;;;15.50;13.90;;;;;;5042380;28;20549;-69
2023/04/02 11:44:29;;;;;;;5.70;1.10;;;15.40;14.80;;;;;;5042046;28;20472;-69
2023/04/02 11:47:17;;;;;;;4.20;1.03;;;15.30;15.40;;;;;;5036944;28;20481;-69
2023/04/02 11:50:02;;;;;;;3.70;0.90;;;15.20;15.90;;;;;;5044039;28;22242;-71
2023/04/02 11:52:36;;;;;;;5.83;1.30;;;15.10;16.30;;;;;;5038056;28;20543;-68
2023/04/02 11:55:21;;;;;;;4.67;1.20;;;14.90;16.50;;;;;;5023555;22;20657;-70
2023/04/02 11:57:57;;;;;;;5.50;1.20;;;14.90;16.80;;;;;;5041853;28;20494;-70
2023/04/02 12:00:49;;;;;;;4.77;1.00;;;14.80;16.90;;;;;;5040308;28;20473;-70
2023/04/02 12:03:36;;;;;;;3.77;0.70;;;14.70;17.10;;;;;;5047478;28;20466;-70
2023/04/02 12:06:09;;;;;;;3.80;1.00;;;14.70;17.20;;;;;;5036573;28;20505;-70
2023/04/02 12:08:46;;;;;;;4.63;0.73;;;14.80;17.30;;;;;;5037608;28;20461;-70
2023/04/02 12:11:14;;;;;;;4.47;0.60;;;14.90;17.50;;;;;;5034810;28;20497;-70
2023/04/02 12:13:49;;;;;;;4.37;0.80;;;15.10;17.30;;;;;;5043708;28;20466;-70
2023/04/02 12:16:18;;;;;;;3.80;0.80;;;15.20;16.60;;;;;;5039276;28;20481;-71
2023/04/02 12:18:47;;;;;;;4.63;1.10;;;15.40;16.00;;;;;;5045192;28;20874;-70
2023/04/02 12:21:18;;;;;;;3.40;0.70;;;15.40;16.20;;;;;;5032701;28;20468;-70
2023/04/02 12:23:47;;;;;;;4.30;0.93;;;15.50;15.80;;;;;;5041907;28;20853;-69
2023/04/02 12:26:30;;;;;;;3.60;0.90;;;15.60;15.50;;;;;;5028494;28;20493;-70
2023/04/02 12:29:23;;;;;;;3.30;0.60;;;15.60;15.60;;;;;;5045150;28;20488;-70
2023/04/02 12:31:52;;;;;;;3.37;0.70;;;15.70;15.30;;;;;;5035726;28;21329;-69
2023/04/02 12:34:21;;;;;;;3.47;0.70;;;15.80;15.50;;;;;;5043137;28;20467;-72
2023/04/02 12:37:02;;;;;;;3.97;0.63;;;15.80;15.80;;;;;;5048212;28;20470;-69
2023/04/02 12:39:30;;;;;;;3.80;0.83;;;15.80;16.00;;;;;;5036849;28;20494;-70
2023/04/02 12:41:57;;;;;;;4.00;0.90;;;15.70;16.00;;;;;;5043546;28;20553;-69
2023/04/02 12:44:25;;;;;;;4.20;1.00;;;15.70;16.40;;;;;;5042543;28;20458;-70
2023/04/02 12:46:54;;;;;;;3.90;0.90;;;15.70;16.50;;;;;;5041383;28;20470;-72
2023/04/02 12:49:34;;;;;;;4.27;1.00;;;15.70;16.60;;;;;;5037111;28;21076;-71
2023/04/02 12:52:03;;;;;;;3.90;0.90;;;15.70;16.40;;;;;;5031667;28;20470;-71
2023/04/02 12:54:35;;;;;;;3.90;1.30;;;15.70;16.40;;;;;;5036290;28;20520;-71
2023/04/02 12:57:20;;;;;;;6.00;3.97;;;15.60;16.30;;;;;;5039520;28;20954;-70
2023/04/02 12:59:47;;;;;;;4.07;1.43;;;15.50;16.30;;;;;;5035057;28;21113;-70
2023/04/02 13:02:19;;;;;;;4.43;0.90;;;15.50;16.40;;;;;;5042974;28;20985;-69
2023/04/02 13:04:52;;;;;;;4.23;1.03;;;15.50;16.30;;;;;;5037904;28;20549;-71
2023/04/02 13:07:22;;;;;;;4.43;1.17;;;15.50;16.30;;;;;;5051112;28;20476;-70
2023/04/02 13:09:50;;;;;;;3.50;0.97;;;15.30;15.60;;;;;;5047500;28;20466;-71
2023/04/02 13:12:27;;;;;;;5.50;0.90;;;15.10;15.80;;;;;;5045795;28;20458;-70
2023/04/02 13:14:55;;;;;;;4.00;1.07;;;15.10;16.20;;;;;;5041545;28;20492;-69
2023/04/02 13:17:42;;;;;;;4.83;1.10;;;15.10;16.60;;;;;;5039751;28;20520;-70
2023/04/02 13:20:28;;;;;;;4.10;1.20;;;15.00;16.70;;;;;;5046322;28;20470;-70
2023/04/02 13:22:55;;;;;;;3.37;0.63;;;15.10;17.10;;;;;;5048688;28;20501;-70
2023/04/02 13:25:27;;;;;;;3.63;0.77;;;15.10;17.10;;;;;;5045976;28;20484;-69